Time;durP1;ratioP1;P1;durP2;ratioP2;P2;SDS_P1;SDS_P2;PMS_P1;PMS_P2;Temp;Humidity;BMP_temperature;BMP_pressure;BME280_temperature;BME280_humidity;BME280_pressure;Samples;Min_cycle;Max_cycle;Signal;HPM_P1;HPM_P2
2022/10/06 00:01:17;;;;;;;18.95;3.15;;;13.10;99.90;;;;;;5134641;27;20051;-81
2022/10/06 00:03:44;;;;;;;10.60;2.15;;;13.10;99.90;;;;;;5153093;27;20046;-80
2022/10/06 00:06:12;;;;;;;12.88;2.55;;;13.00;99.90;;;;;;5134195;27;20082;-81
2022/10/06 00:08:40;;;;;;;10.45;2.10;;;13.00;99.90;;;;;;5117318;27;20054;-81
2022/10/06 00:11:08;;;;;;;14.65;2.35;;;12.90;99.90;;;;;;5145517;27;20062;-80
2022/10/06 00:13:35;;;;;;;12.05;1.80;;;12.80;99.90;;;;;;5153442;27;20046;-80
2022/10/06 00:16:07;;;;;;;9.27;1.63;;;12.80;99.90;;;;;;5153180;27;20047;-81
2022/10/06 00:18:33;;;;;;;12.52;2.30;;;12.80;99.90;;;;;;5152644;27;20050;-81
2022/10/06 00:21:00;;;;;;;11.30;2.28;;;12.70;99.90;;;;;;5153238;27;20124;-81
2022/10/06 00:23:28;;;;;;;17.42;2.92;;;12.70;99.90;;;;;;5152300;27;20160;-81
2022/10/06 00:25:54;;;;;;;10.70;2.08;;;12.70;99.90;;;;;;5133964;27;20043;-81
2022/10/06 00:28:21;;;;;;;12.60;2.17;;;12.60;99.90;;;;;;5136114;27;20054;-80
2022/10/06 00:30:47;;;;;;;19.90;3.50;;;12.70;99.90;;;;;;5157504;27;20049;-81
2022/10/06 00:33:18;;;;;;;16.98;2.85;;;12.60;99.90;;;;;;5134502;27;20058;-81
2022/10/06 00:35:44;;;;;;;10.90;2.13;;;12.60;99.90;;;;;;5133859;27;20082;-80
2022/10/06 00:38:12;;;;;;;21.17;4.18;;;12.60;99.90;;;;;;5134175;27;20193;-80
2022/10/06 00:40:47;;;;;;;16.27;2.35;;;12.60;99.90;;;;;;5152482;27;20111;-80
2022/10/06 00:43:47;;;;;;;20.23;2.40;;;12.70;99.90;;;;;;5152397;27;20051;-81
2022/10/06 00:46:15;;;;;;;13.52;3.40;;;12.70;99.90;;;;;;5135077;27;20086;-80
2022/10/06 00:48:43;;;;;;;15.93;2.95;;;12.70;99.90;;;;;;5145274;27;20057;-80
2022/10/06 00:51:09;;;;;;;19.58;3.58;;;12.70;99.90;;;;;;5154872;27;20133;-81
2022/10/06 00:53:35;;;;;;;16.23;2.92;;;12.70;99.90;;;;;;5133906;27;20050;-81
2022/10/06 00:56:01;;;;;;;16.23;2.42;;;12.70;99.90;;;;;;5153038;27;20116;-82
2022/10/06 00:58:27;;;;;;;12.18;2.00;;;12.80;99.90;;;;;;5152779;27;20517;-80
2022/10/06 01:00:58;;;;;;;19.55;2.75;;;12.80;99.90;;;;;;5152570;27;20041;-81
2022/10/06 01:03:30;;;;;;;16.25;2.42;;;12.80;99.90;;;;;;5134144;27;20058;-81
2022/10/06 01:05:58;;;;;;;13.75;2.40;;;12.80;99.90;;;;;;5138666;27;20058;-81
2022/10/06 01:08:24;;;;;;;12.57;2.08;;;12.80;99.90;;;;;;5152780;27;20039;-81
2022/10/06 01:10:50;;;;;;;13.57;2.10;;;12.80;99.90;;;;;;5152668;27;20065;-81
2022/10/06 01:13:17;;;;;;;12.90;2.30;;;12.70;99.90;;;;;;5152530;27;20118;-80
2022/10/06 01:16:15;;;;;;;11.63;2.65;;;12.70;99.90;;;;;;5134100;27;20054;-82
2022/10/06 01:18:43;;;;;;;14.30;2.20;;;12.70;99.90;;;;;;5125362;27;20057;-80
2022/10/06 01:21:41;;;;;;;14.00;2.47;;;12.70;99.90;;;;;;5133554;27;20043;-81
2022/10/06 01:24:08;;;;;;;12.25;2.17;;;12.60;99.90;;;;;;5134023;27;20065;-81
2022/10/06 01:26:36;;;;;;;15.00;2.63;;;12.60;99.90;;;;;;5141661;27;20055;-81
2022/10/06 01:29:02;;;;;;;16.88;2.53;;;12.50;99.90;;;;;;5153612;27;20554;-81
2022/10/06 01:31:29;;;;;;;15.25;2.13;;;12.50;99.90;;;;;;5134040;27;20042;-81
2022/10/06 01:33:55;;;;;;;17.63;2.15;;;12.40;99.90;;;;;;5153508;27;20046;-80
2022/10/06 01:36:21;;;;;;;18.42;3.22;;;12.40;99.90;;;;;;5138901;27;20066;-79
2022/10/06 01:38:47;;;;;;;17.60;2.45;;;12.40;99.90;;;;;;5143205;27;20082;-80
2022/10/06 01:41:13;;;;;;;18.33;2.17;;;12.40;99.90;;;;;;5156513;27;20519;-80
2022/10/06 01:43:38;;;;;;;14.05;2.47;;;12.30;99.90;;;;;;5156426;27;20039;-80
2022/10/06 01:46:05;;;;;;;14.63;3.00;;;12.30;99.90;;;;;;5169209;27;20080;-81
2022/10/06 01:48:33;;;;;;;16.90;2.90;;;12.40;99.90;;;;;;5156478;27;20061;-80
2022/10/06 01:50:59;;;;;;;12.98;2.35;;;12.30;99.90;;;;;;5138190;27;20462;-81
2022/10/06 01:53:25;;;;;;;14.55;2.75;;;12.30;99.90;;;;;;5156868;27;20130;-81
2022/10/06 01:55:55;;;;;;;14.13;2.90;;;12.30;99.90;;;;;;5156014;27;20065;-81
2022/10/06 01:58:21;;;;;;;12.02;2.58;;;12.30;99.90;;;;;;5137624;27;20413;-81
2022/10/06 02:00:49;;;;;;;10.85;2.33;;;12.30;99.90;;;;;;5156219;27;20045;-80
2022/10/06 02:03:15;;;;;;;13.02;2.30;;;12.40;99.90;;;;;;5156167;27;20042;-81
2022/10/06 02:05:41;;;;;;;10.02;2.20;;;12.40;99.90;;;;;;5160825;27;20042;-80
2022/10/06 02:08:08;;;;;;;10.52;2.10;;;12.40;99.90;;;;;;5159631;27;20413;-80
2022/10/06 02:10:35;;;;;;;13.65;2.75;;;12.40;99.90;;;;;;5156030;27;20046;-82
2022/10/06 02:13:01;;;;;;;15.65;2.80;;;12.40;99.90;;;;;;5137178;27;20788;-82
2022/10/06 02:15:31;;;;;;;14.48;3.22;;;12.40;99.90;;;;;;5136838;27;20042;-80
2022/10/06 02:17:58;;;;;;;22.02;3.22;;;12.40;99.90;;;;;;5155176;27;20090;-80
2022/10/06 02:20:24;;;;;;;14.48;3.05;;;12.40;99.90;;;;;;5155102;27;20059;-81
2022/10/06 02:22:50;;;;;;;14.93;2.40;;;12.30;99.90;;;;;;5119509;27;20110;-80
2022/10/06 02:25:16;;;;;;;18.73;3.10;;;12.30;99.90;;;;;;5136642;27;20133;-81
2022/10/06 02:27:43;;;;;;;15.20;2.47;;;12.20;99.90;;;;;;5157645;27;20504;-80
2022/10/06 02:30:10;;;;;;;20.10;2.17;;;12.20;99.90;;;;;;5141868;27;20050;-80
2022/10/06 02:32:38;;;;;;;15.43;2.70;;;12.20;99.90;;;;;;5155430;27;20046;-80
2022/10/06 02:35:05;;;;;;;16.23;2.47;;;12.20;99.90;;;;;;5136479;27;20130;-80
2022/10/06 02:37:32;;;;;;;13.73;2.35;;;12.10;99.90;;;;;;5154887;27;20086;-80
2022/10/06 02:39:58;;;;;;;18.85;2.45;;;12.10;99.90;;;;;;5154668;27;20129;-80
2022/10/06 02:42:24;;;;;;;21.85;2.97;;;12.20;99.90;;;;;;5155177;27;20122;-80
2022/10/06 02:44:51;;;;;;;11.10;2.05;;;12.10;99.90;;;;;;5136536;27;20626;-81
2022/10/06 02:47:18;;;;;;;15.93;3.08;;;12.10;99.90;;;;;;5154499;27;20383;-81
2022/10/06 02:49:44;;;;;;;12.88;2.58;;;12.10;99.90;;;;;;5138834;27;20047;-80
2022/10/06 02:52:10;;;;;;;12.32;2.33;;;12.20;99.90;;;;;;5142344;27;20196;-81
2022/10/06 02:54:36;;;;;;;14.90;3.13;;;12.10;99.90;;;;;;5154963;27;20130;-81
2022/10/06 02:57:02;;;;;;;14.82;2.92;;;12.10;99.90;;;;;;5135629;27;20054;-81
2022/10/06 02:59:28;;;;;;;16.98;2.50;;;12.20;99.90;;;;;;5154634;27;20057;-80
2022/10/06 03:01:54;;;;;;;14.77;3.13;;;12.20;99.90;;;;;;5136036;27;20435;-81
2022/10/06 03:04:20;;;;;;;18.95;3.22;;;12.20;99.90;;;;;;5136466;27;20530;-80
2022/10/06 03:06:48;;;;;;;14.02;2.42;;;12.30;99.90;;;;;;5154458;27;20054;-80
2022/10/06 03:09:14;;;;;;;13.07;2.00;;;12.30;99.90;;;;;;5136193;27;20057;-80
2022/10/06 03:11:42;;;;;;;11.57;3.40;;;12.40;99.90;;;;;;5160234;27;20070;-80
2022/10/06 03:14:08;;;;;;;16.40;2.60;;;12.40;99.90;;;;;;5155374;27;20042;-81
2022/10/06 03:16:37;;;;;;;16.48;3.08;;;12.40;99.90;;;;;;5135788;27;20413;-81
2022/10/06 03:19:05;;;;;;;11.93;2.83;;;12.40;99.90;;;;;;5154328;27;20114;-81
2022/10/06 03:21:36;;;;;;;16.88;3.72;;;12.40;99.90;;;;;;5135580;27;20484;-80
2022/10/06 03:24:02;;;;;;;16.52;2.47;;;12.40;99.90;;;;;;5136114;27;20057;-80
2022/10/06 03:26:31;;;;;;;16.90;2.42;;;12.30;99.90;;;;;;5135672;27;20122;-80
2022/10/06 03:28:59;;;;;;;10.77;2.20;;;12.30;99.90;;;;;;5135751;27;20099;-80
2022/10/06 03:31:25;;;;;;;18.73;2.63;;;12.30;99.90;;;;;;5154470;27;20043;-79
2022/10/06 03:33:55;;;;;;;12.88;1.88;;;12.30;99.90;;;;;;5141874;27;20046;-79
2022/10/06 03:36:23;;;;;;;16.85;1.83;;;12.30;99.90;;;;;;5135308;27;20058;-79
2022/10/06 03:38:49;;;;;;;10.57;2.97;;;12.30;99.90;;;;;;5135779;27;20051;-80
2022/10/06 03:41:18;;;;;;;11.82;2.33;;;12.30;99.90;;;;;;5135653;27;20110;-79
2022/10/06 03:43:45;;;;;;;15.23;3.10;;;12.30;99.90;;;;;;5154389;27;20050;-80
2022/10/06 03:46:13;;;;;;;11.43;2.67;;;12.30;99.90;;;;;;5136650;27;20104;-80
2022/10/06 03:48:40;;;;;;;15.43;2.35;;;12.30;99.90;;;;;;5154295;27;20207;-80
2022/10/06 03:51:10;;;;;;;9.35;2.00;;;12.30;99.90;;;;;;5156803;27;20554;-79
2022/10/06 03:53:36;;;;;;;12.32;2.05;;;12.40;99.90;;;;;;5137440;27;20078;-79
2022/10/06 03:56:10;;;;;;;11.32;2.00;;;12.40;99.90;;;;;;5153796;27;20121;-80
2022/10/06 03:58:38;;;;;;;13.45;2.53;;;12.40;99.90;;;;;;5117568;27;20379;-80
2022/10/06 04:01:07;;;;;;;10.27;2.38;;;12.30;99.90;;;;;;5135695;27;20041;-80
2022/10/06 04:03:33;;;;;;;12.80;2.47;;;12.30;99.90;;;;;;5134781;27;20384;-80
2022/10/06 04:06:03;;;;;;;14.70;2.30;;;12.30;99.90;;;;;;5134656;27;20049;-80
2022/10/06 04:08:31;;;;;;;10.57;2.15;;;12.20;99.90;;;;;;5135487;27;20042;-79
2022/10/06 04:11:09;;;;;;;10.77;1.95;;;12.20;99.90;;;;;;5158219;27;20047;-80
2022/10/06 04:13:35;;;;;;;21.25;3.60;;;12.10;99.90;;;;;;5136503;27;20602;-80
2022/10/06 04:16:21;;;;;;;22.17;3.08;;;12.10;99.90;;;;;;5134493;27;20065;-80
2022/10/06 04:18:52;;;;;;;20.42;3.03;;;12.10;99.90;;;;;;5134760;27;20110;-79
2022/10/06 04:21:19;;;;;;;14.55;2.63;;;12.00;99.90;;;;;;5134696;27;20514;-80
2022/10/06 04:23:44;;;;;;;15.25;3.13;;;12.00;99.90;;;;;;5134362;27;20520;-80
2022/10/06 04:26:13;;;;;;;18.88;3.53;;;11.90;99.90;;;;;;5134805;27;20055;-80
2022/10/06 04:28:42;;;;;;;17.20;2.53;;;11.90;99.90;;;;;;5139007;27;20133;-80
2022/10/06 04:31:29;;;;;;;17.40;3.17;;;11.90;99.90;;;;;;5136273;27;20043;-80
2022/10/06 04:33:58;;;;;;;15.43;2.42;;;11.90;99.90;;;;;;5135720;27;20053;-80
2022/10/06 04:36:30;;;;;;;14.35;2.78;;;11.90;99.90;;;;;;5134030;27;20137;-80
2022/10/06 04:38:58;;;;;;;19.55;4.05;;;11.90;99.90;;;;;;5134378;27;20047;-81
2022/10/06 04:41:27;;;;;;;15.00;2.72;;;11.90;99.90;;;;;;5135026;27;20050;-81
2022/10/06 04:43:53;;;;;;;26.15;3.75;;;11.90;99.90;;;;;;5134325;27;20058;-80
2022/10/06 04:46:21;;;;;;;11.10;2.72;;;11.80;99.90;;;;;;5134350;27;20054;-81
2022/10/06 04:48:49;;;;;;;17.83;2.83;;;11.90;99.90;;;;;;5153222;27;20389;-80
2022/10/06 04:51:16;;;;;;;20.00;4.60;;;11.80;99.90;;;;;;5140168;27;20119;-81
2022/10/06 04:53:45;;;;;;;18.05;3.20;;;11.80;99.90;;;;;;5141218;27;20047;-81
2022/10/06 04:56:17;;;;;;;22.30;3.95;;;11.80;99.90;;;;;;5153100;27;20065;-80
2022/10/06 04:58:46;;;;;;;27.83;4.30;;;11.80;99.90;;;;;;5152941;27;20110;-80
2022/10/06 05:01:21;;;;;;;18.58;2.85;;;11.80;99.90;;;;;;5153457;27;20081;-80
2022/10/06 05:03:52;;;;;;;18.75;2.92;;;11.80;99.90;;;;;;5153319;27;20043;-80
2022/10/06 05:06:20;;;;;;;21.13;3.33;;;11.70;99.90;;;;;;5134616;27;20051;-80
2022/10/06 05:08:58;;;;;;;15.15;2.65;;;11.70;99.90;;;;;;5156938;27;20049;-81
2022/10/06 05:11:25;;;;;;;19.42;3.42;;;11.70;99.90;;;;;;5170757;27;20182;-80
2022/10/06 05:13:56;;;;;;;17.20;2.75;;;11.80;99.90;;;;;;5157091;27;20136;-80
2022/10/06 05:16:25;;;;;;;15.90;3.28;;;11.70;99.90;;;;;;5156740;27;20047;-80
2022/10/06 05:18:51;;;;;;;16.17;3.20;;;11.70;99.90;;;;;;5157037;27;20054;-79
2022/10/06 05:21:20;;;;;;;25.92;3.53;;;11.70;99.90;;;;;;5157196;27;20093;-80
2022/10/06 05:23:46;;;;;;;15.07;2.83;;;11.80;99.90;;;;;;5156930;27;20051;-81
2022/10/06 05:26:14;;;;;;;26.25;4.15;;;11.70;99.90;;;;;;5156612;27;20497;-80
2022/10/06 05:28:40;;;;;;;22.02;3.70;;;11.70;99.90;;;;;;5158992;27;20062;-81
2022/10/06 05:31:21;;;;;;;14.82;2.45;;;11.70;99.90;;;;;;5146363;27;20050;-80
2022/10/06 05:33:47;;;;;;;23.52;3.53;;;11.60;99.90;;;;;;5157390;27;20058;-80
2022/10/06 05:36:28;;;;;;;10.95;2.10;;;11.60;99.90;;;;;;5139554;27;20054;-79
2022/10/06 05:38:55;;;;;;;15.07;2.55;;;11.60;99.90;;;;;;5158276;27;20052;-79
2022/10/06 05:41:22;;;;;;;16.55;3.33;;;11.60;99.90;;;;;;5156630;27;20086;-80
2022/10/06 05:43:49;;;;;;;15.98;3.67;;;11.60;99.90;;;;;;5156458;27;20047;-81
2022/10/06 05:46:22;;;;;;;14.18;2.92;;;11.60;99.90;;;;;;5155881;27;20092;-81
2022/10/06 05:48:56;;;;;;;20.02;3.53;;;11.50;99.90;;;;;;5155799;27;20584;-80
2022/10/06 05:51:24;;;;;;;11.35;2.58;;;11.50;99.90;;;;;;5156124;27;20055;-80
2022/10/06 05:53:50;;;;;;;12.15;2.92;;;11.50;99.90;;;;;;5159269;27;20696;-81
2022/10/06 05:56:19;;;;;;;17.67;2.92;;;11.50;99.90;;;;;;5165250;27;20093;-81
2022/10/06 05:58:50;;;;;;;23.02;3.30;;;11.50;99.90;;;;;;5154788;27;20039;-81
2022/10/06 06:01:22;;;;;;;23.65;3.40;;;11.50;99.90;;;;;;5136997;27;20050;-81
2022/10/06 06:03:53;;;;;;;13.75;2.70;;;11.50;99.90;;;;;;5155864;27;20043;-81
2022/10/06 06:06:22;;;;;;;21.75;3.10;;;11.40;99.90;;;;;;5155549;27;20054;-79
2022/10/06 06:08:52;;;;;;;19.30;2.72;;;11.40;99.90;;;;;;5137146;27;20062;-79
2022/10/06 06:11:18;;;;;;;13.45;2.15;;;11.40;99.90;;;;;;5137164;27;20050;-79
2022/10/06 06:13:44;;;;;;;18.80;3.17;;;11.40;99.90;;;;;;5136669;27;20043;-80
2022/10/06 06:16:14;;;;;;;18.63;2.90;;;11.40;99.90;;;;;;5155163;27;20043;-80
2022/10/06 06:18:40;;;;;;;14.05;2.20;;;11.40;99.90;;;;;;5138205;27;20047;-79
2022/10/06 06:21:08;;;;;;;15.93;2.80;;;11.40;99.90;;;;;;5135659;27;20435;-80
2022/10/06 06:23:44;;;;;;;15.20;2.95;;;11.40;99.90;;;;;;5155690;27;20398;-80
2022/10/06 06:26:14;;;;;;;17.20;2.88;;;11.40;99.90;;;;;;5165577;27;20046;-80
2022/10/06 06:28:41;;;;;;;15.60;3.10;;;11.40;99.90;;;;;;5137465;27;20103;-79
2022/10/06 06:31:12;;;;;;;19.38;3.20;;;11.40;99.90;;;;;;5137230;27;20435;-78
2022/10/06 06:33:40;;;;;;;13.70;2.42;;;11.40;99.90;;;;;;5155912;27;20454;-80
2022/10/06 06:36:15;;;;;;;18.92;2.42;;;11.40;99.90;;;;;;5139506;27;20042;-80
2022/10/06 06:38:42;;;;;;;17.67;3.00;;;11.40;99.90;;;;;;5155990;27;20065;-79
2022/10/06 06:41:23;;;;;;;16.95;3.63;;;11.40;99.90;;;;;;5154967;27;20047;-80
2022/10/06 06:43:51;;;;;;;14.05;2.47;;;11.40;99.90;;;;;;5154775;27;20043;-79
2022/10/06 06:46:19;;;;;;;16.55;2.42;;;11.40;99.90;;;;;;5136043;27;20042;-79
2022/10/06 06:48:45;;;;;;;21.33;3.20;;;11.40;99.90;;;;;;5166039;27;20049;-79
2022/10/06 06:51:12;;;;;;;18.13;2.47;;;11.50;99.90;;;;;;5157783;27;20520;-80
2022/10/06 06:53:39;;;;;;;22.30;2.72;;;11.50;99.90;;;;;;5154729;27;20035;-79
2022/10/06 06:56:07;;;;;;;12.90;2.17;;;11.60;99.90;;;;;;5136241;27;20047;-79
2022/10/06 06:58:34;;;;;;;15.65;2.95;;;11.60;99.90;;;;;;5155158;27;20047;-79
2022/10/06 07:01:10;;;;;;;19.30;2.45;;;11.70;99.90;;;;;;5118593;27;20482;-79
2022/10/06 07:03:38;;;;;;;14.43;2.38;;;11.80;99.90;;;;;;5154367;27;20055;-80
2022/10/06 07:06:09;;;;;;;13.73;2.33;;;11.90;99.90;;;;;;5136124;27;20047;-80
2022/10/06 07:08:37;;;;;;;12.10;2.20;;;12.00;99.90;;;;;;5158143;27;20569;-79
2022/10/06 07:11:17;;;;;;;22.25;3.15;;;12.10;99.90;;;;;;5137746;27;20054;-80
2022/10/06 07:13:43;;;;;;;15.73;3.35;;;12.10;99.90;;;;;;5154239;27;20542;-80
2022/10/06 07:27:11;;;;;;;12.45;2.40;;;12.30;99.90;;;;;;5156636;27;20055;-78
2022/10/06 07:29:40;;;;;;;17.90;3.00;;;12.40;99.90;;;;;;5157969;27;20039;-79
2022/10/06 07:32:06;;;;;;;19.63;2.85;;;12.50;99.90;;;;;;5152845;27;20137;-79
2022/10/06 07:34:36;;;;;;;10.35;3.15;;;12.60;99.90;;;;;;5154176;27;20553;-79
2022/10/06 07:37:02;;;;;;;14.20;3.10;;;12.70;99.90;;;;;;5153362;27;20145;-80
2022/10/06 07:39:28;;;;;;;18.70;3.75;;;12.80;99.90;;;;;;5153813;27;20394;-79
2022/10/06 07:41:54;;;;;;;11.15;2.05;;;12.80;99.90;;;;;;5135000;27;20053;-79
2022/10/06 07:44:20;;;;;;;19.45;2.45;;;12.90;99.90;;;;;;5153863;27;20443;-80
2022/10/06 07:46:47;;;;;;;17.45;2.67;;;12.90;99.90;;;;;;5155916;27;20451;-79
2022/10/06 07:49:16;;;;;;;14.48;2.78;;;13.10;99.90;;;;;;5164104;27;20115;-79
2022/10/06 07:51:43;;;;;;;19.00;2.95;;;13.10;99.90;;;;;;5135120;27;20147;-80
2022/10/06 07:54:09;;;;;;;16.27;2.28;;;13.20;99.90;;;;;;5153846;27;20414;-80
2022/10/06 07:56:35;;;;;;;17.10;2.30;;;13.20;99.90;;;;;;5134753;27;20046;-80
2022/10/06 07:59:01;;;;;;;17.95;2.95;;;13.30;99.90;;;;;;5134627;27;20466;-80
2022/10/06 08:01:29;;;;;;;16.92;2.88;;;13.30;99.90;;;;;;5154925;27;20050;-80
2022/10/06 08:03:55;;;;;;;13.95;2.78;;;13.30;99.90;;;;;;5139287;27;20106;-80
2022/10/06 08:06:22;;;;;;;12.48;2.25;;;13.40;99.90;;;;;;5134765;27;20545;-80
2022/10/06 08:08:51;;;;;;;12.52;2.40;;;13.40;99.90;;;;;;5135153;27;20047;-80
2022/10/06 08:11:17;;;;;;;16.55;3.30;;;13.50;99.90;;;;;;5153392;27;20517;-79
2022/10/06 08:13:47;;;;;;;14.63;2.22;;;13.50;99.90;;;;;;5153229;27;20054;-79
2022/10/06 08:16:18;;;;;;;14.07;3.00;;;13.60;99.90;;;;;;5153266;27;20046;-80
2022/10/06 08:18:55;;;;;;;17.10;2.35;;;13.60;99.90;;;;;;5157516;27;20111;-80
2022/10/06 08:21:28;;;;;;;16.85;2.80;;;13.70;99.90;;;;;;5153643;27;20051;-80
2022/10/06 08:23:55;;;;;;;13.77;2.40;;;13.70;99.90;;;;;;5153280;27;20050;-79
2022/10/06 08:26:23;;;;;;;14.45;3.15;;;13.80;99.90;;;;;;5152999;27;20137;-80
2022/10/06 08:28:52;;;;;;;14.32;3.40;;;13.90;99.90;;;;;;5153528;27;20046;-79
2022/10/06 08:31:19;;;;;;;16.20;3.53;;;13.90;99.90;;;;;;5135368;27;20105;-81
2022/10/06 08:33:47;;;;;;;14.07;2.38;;;14.00;99.90;;;;;;5153356;27;20053;-80
2022/10/06 08:36:18;;;;;;;16.40;2.80;;;14.10;99.90;;;;;;5158444;27;20058;-79
2022/10/06 08:38:51;;;;;;;17.90;2.88;;;14.20;99.90;;;;;;5134230;27;20050;-79
2022/10/06 08:41:22;;;;;;;18.70;3.25;;;14.20;99.90;;;;;;5153085;27;20047;-80
2022/10/06 08:43:58;;;;;;;20.98;3.90;;;14.40;99.90;;;;;;5133819;27;20102;-80
2022/10/06 08:46:31;;;;;;;15.98;2.35;;;14.40;99.90;;;;;;5134135;27;20051;-80
2022/10/06 08:48:57;;;;;;;13.25;2.33;;;14.40;99.90;;;;;;5159329;27;20054;-79
2022/10/06 08:51:46;;;;;;;17.38;2.50;;;14.50;99.90;;;;;;5154977;27;20122;-80
2022/10/06 08:54:31;;;;;;;14.63;2.20;;;14.50;99.90;;;;;;5152676;27;20046;-80
2022/10/06 08:57:08;;;;;;;21.73;4.05;;;14.70;99.90;;;;;;5133918;27;20440;-80
2022/10/06 08:59:35;;;;;;;12.07;2.83;;;14.70;99.90;;;;;;5152194;27;20047;-80
2022/10/06 09:02:05;;;;;;;9.90;2.40;;;14.80;99.90;;;;;;5133836;27;20046;-80
2022/10/06 09:04:33;;;;;;;15.20;2.53;;;14.80;99.90;;;;;;5157528;27;20094;-80
2022/10/06 09:07:11;;;;;;;12.23;2.80;;;14.90;99.90;;;;;;5152214;27;20038;-81
2022/10/06 09:09:56;;;;;;;13.00;1.92;;;14.90;99.90;;;;;;5147760;27;20055;-81
2022/10/06 09:13:00;;;;;;;13.05;1.98;;;14.90;99.90;;;;;;5132649;27;20094;-80
2022/10/06 09:15:49;;;;;;;12.70;3.08;;;15.00;99.90;;;;;;5112449;27;20089;-80
2022/10/06 09:18:40;;;;;;;15.10;2.65;;;15.10;99.90;;;;;;5157540;27;20043;-80
2022/10/06 09:21:12;;;;;;;16.45;2.30;;;15.10;99.90;;;;;;5133713;27;20103;-82
2022/10/06 09:23:47;;;;;;;18.40;2.72;;;15.20;99.90;;;;;;5152497;27;20126;-80
2022/10/06 09:26:21;;;;;;;17.63;3.38;;;15.20;99.90;;;;;;5152328;27;20195;-80
2022/10/06 09:28:48;;;;;;;14.98;3.03;;;15.40;99.90;;;;;;5151978;27;20055;-79
2022/10/06 09:31:21;;;;;;;9.65;2.20;;;15.50;99.90;;;;;;5152617;27;20085;-80
2022/10/06 09:33:50;;;;;;;14.30;3.17;;;15.60;99.90;;;;;;5156955;27;20550;-80
2022/10/06 09:36:16;;;;;;;13.15;2.17;;;15.50;99.90;;;;;;5151473;27;20054;-81
2022/10/06 09:38:54;;;;;;;12.18;2.58;;;15.50;99.90;;;;;;5133914;27;20386;-80
2022/10/06 09:41:28;;;;;;;16.60;2.75;;;15.60;99.90;;;;;;5152381;27;20047;-79
2022/10/06 09:43:59;;;;;;;14.10;3.10;;;15.60;99.90;;;;;;5133282;27;20417;-79
2022/10/06 09:46:40;;;;;;;13.35;2.22;;;15.60;99.90;;;;;;5133674;27;20103;-79
2022/10/06 09:49:17;;;;;;;17.27;2.60;;;15.60;99.90;;;;;;5155534;27;20595;-79
2022/10/06 09:52:14;;;;;;;9.35;2.38;;;15.40;99.90;;;;;;5133531;27;20051;-80
2022/10/06 09:54:42;;;;;;;17.75;3.53;;;15.20;99.90;;;;;;5152070;27;20493;-80
2022/10/06 09:57:24;;;;;;;14.57;2.58;;;15.40;99.90;;;;;;5137080;27;20108;-79
2022/10/06 09:59:51;;;;;;;19.60;2.30;;;15.70;99.90;;;;;;5137358;27;20134;-80
2022/10/06 10:02:26;;;;;;;9.93;2.60;;;15.80;99.90;;;;;;5158609;27;20050;-80
2022/10/06 10:04:55;;;;;;;12.77;1.85;;;15.90;99.90;;;;;;5138766;27;20401;-80
2022/10/06 10:07:23;;;;;;;12.90;2.28;;;16.00;99.90;;;;;;5137066;27;20051;-80
2022/10/06 10:09:50;;;;;;;11.70;2.00;;;16.10;99.90;;;;;;5137088;27;20064;-81
2022/10/06 10:12:23;;;;;;;11.25;2.20;;;16.20;99.90;;;;;;5137039;27;20059;-81
2022/10/06 10:14:55;;;;;;;11.13;1.75;;;16.20;99.90;;;;;;5155986;27;20143;-80
2022/10/06 10:17:38;;;;;;;14.70;3.70;;;16.00;99.90;;;;;;5160084;27;20134;-81
2022/10/06 10:20:26;;;;;;;12.70;2.20;;;15.90;99.90;;;;;;5155177;27;20086;-80
2022/10/06 10:22:54;;;;;;;15.73;2.33;;;16.10;99.90;;;;;;5136697;27;20505;-81
2022/10/06 10:25:46;;;;;;;10.18;2.20;;;16.30;99.90;;;;;;5155389;27;20080;-80
2022/10/06 10:28:38;;;;;;;11.35;1.90;;;16.60;99.90;;;;;;5136591;27;20497;-80
2022/10/06 10:31:41;;;;;;;10.80;2.33;;;16.70;99.90;;;;;;5136507;27;20062;-81
2022/10/06 10:34:25;;;;;;;11.98;2.10;;;16.70;99.90;;;;;;5160039;27;20051;-80
2022/10/06 10:37:03;;;;;;;11.00;2.10;;;16.60;99.90;;;;;;5154738;27;20063;-80
2022/10/06 10:39:40;;;;;;;9.40;1.83;;;16.70;99.90;;;;;;5136515;27;20113;-79
2022/10/06 10:42:16;;;;;;;15.73;2.00;;;16.50;99.90;;;;;;5155857;27;20047;-79
2022/10/06 10:45:12;;;;;;;11.25;2.00;;;16.30;99.90;;;;;;5155283;27;20035;-80
2022/10/06 10:47:43;;;;;;;12.20;1.80;;;16.20;99.90;;;;;;5145889;27;20064;-80
2022/10/06 10:50:21;;;;;;;11.25;1.73;;;16.00;99.90;;;;;;5159219;27;20042;-80
2022/10/06 10:52:50;;;;;;;13.10;2.10;;;16.10;99.90;;;;;;5155926;27;20051;-81
2022/10/06 10:55:29;;;;;;;7.18;1.90;;;16.60;99.90;;;;;;5155878;27;20055;-81
2022/10/06 10:58:00;;;;;;;8.05;1.60;;;16.70;99.90;;;;;;5136836;27;20046;-81
2022/10/06 11:00:29;;;;;;;9.02;2.20;;;16.90;99.90;;;;;;5154887;27;20062;-80
2022/10/06 11:02:57;;;;;;;11.30;1.85;;;17.00;99.90;;;;;;5156107;27;20042;-80
2022/10/06 11:05:48;;;;;;;9.50;1.92;;;17.10;99.90;;;;;;5160134;27;20047;-80
2022/10/06 11:08:23;;;;;;;14.30;2.22;;;17.50;99.90;;;;;;5154665;27;20043;-80
2022/10/06 11:11:01;;;;;;;9.30;1.42;;;17.90;99.90;;;;;;5154639;27;20051;-81
2022/10/06 11:13:51;;;;;;;11.90;2.70;;;18.00;98.50;;;;;;5156355;27;20047;-80
2022/10/06 11:16:26;;;;;;;14.65;2.10;;;17.90;98.20;;;;;;5137533;27;20050;-80
2022/10/06 11:19:13;;;;;;;8.20;1.45;;;18.00;97.50;;;;;;5147198;27;20051;-80
2022/10/06 11:22:00;;;;;;;13.18;2.03;;;18.10;98.10;;;;;;5156563;27;20091;-79
2022/10/06 11:24:46;;;;;;;11.68;2.25;;;18.40;98.10;;;;;;5155045;27;20093;-79
2022/10/06 11:27:54;;;;;;;8.07;1.60;;;18.60;97.50;;;;;;5155068;27;20499;-80
2022/10/06 11:30:25;;;;;;;8.70;1.75;;;18.70;97.50;;;;;;5122419;27;20110;-80
2022/10/06 11:33:19;;;;;;;9.35;2.05;;;18.80;96.30;;;;;;5135503;27;20114;-80
2022/10/06 11:35:47;;;;;;;10.45;1.83;;;18.90;94.80;;;;;;5142348;27;20379;-79
2022/10/06 11:38:32;;;;;;;8.95;1.70;;;18.60;95.10;;;;;;5153611;27;20086;-80
2022/10/06 11:41:18;;;;;;;11.75;1.60;;;18.70;94.20;;;;;;5137091;27;20054;-78
2022/10/06 11:43:50;;;;;;;8.25;1.60;;;19.20;94.80;;;;;;5153840;27;20042;-80
2022/10/06 11:46:37;;;;;;;10.05;1.60;;;19.90;95.20;;;;;;5153733;27;20042;-79
2022/10/06 11:49:27;;;;;;;9.13;1.85;;;20.10;93.00;;;;;;5157879;27;20143;-80
2022/10/06 11:52:13;;;;;;;9.75;2.13;;;20.20;92.10;;;;;;5153824;27;20050;-80
2022/10/06 11:54:39;;;;;;;8.02;1.35;;;20.50;92.60;;;;;;5153327;27;20047;-80
2022/10/06 11:57:25;;;;;;;9.63;1.48;;;20.20;91.60;;;;;;5153609;27;20050;-82
2022/10/06 12:00:02;;;;;;;10.50;2.00;;;20.80;92.30;;;;;;5134966;27;20600;-80
2022/10/06 12:02:31;;;;;;;9.30;1.42;;;20.50;91.40;;;;;;5135360;27;20047;-80
2022/10/06 12:05:09;;;;;;;8.57;1.45;;;20.00;91.20;;;;;;5157960;27;20054;-81
2022/10/06 12:07:53;;;;;;;13.43;2.15;;;18.70;92.30;;;;;;5153066;27;20058;-81
2022/10/06 12:10:48;;;;;;;7.78;1.50;;;18.80;93.10;;;;;;5153615;27;20056;-80
2022/10/06 12:13:18;;;;;;;;;;;19.10;92.20;;;;;;5149959;27;20043;-81
2022/10/06 12:16:12;;;;;;;6.70;1.73;;;19.90;90.90;;;;;;5134234;27;19923;-81
2022/10/06 12:18:54;;;;;;;8.32;2.28;;;20.00;88.70;;;;;;5117646;27;20057;-79
2022/10/06 12:21:44;;;;;;;12.15;2.15;;;19.90;90.70;;;;;;5134558;27;20441;-80
2022/10/06 12:24:44;;;;;;;9.32;1.50;;;19.60;91.30;;;;;;5152852;27;20050;-80
2022/10/06 12:27:30;;;;;;;15.40;1.55;;;19.80;91.30;;;;;;5134514;27;20057;-80
2022/10/06 12:30:16;;;;;;;11.98;3.25;;;20.20;91.50;;;;;;5152934;27;20129;-79
2022/10/06 12:32:59;;;;;;;8.77;1.80;;;20.50;90.60;;;;;;5158153;27;20584;-79
2022/10/06 12:35:32;;;;;;;11.68;2.47;;;21.00;89.90;;;;;;5116999;27;20586;-80
2022/10/06 12:38:04;;;;;;;7.43;2.00;;;21.80;89.00;;;;;;5152929;27;20165;-81
2022/10/06 12:40:40;;;;;;;10.55;2.05;;;21.70;86.30;;;;;;5152062;27;20512;-80
2022/10/06 12:43:18;;;;;;;10.90;2.15;;;21.60;85.70;;;;;;5153988;27;20055;-80
2022/10/06 12:46:04;;;;;;;9.00;1.83;;;21.40;86.50;;;;;;5135211;27;20497;-79
2022/10/06 12:48:30;;;;;;;6.72;1.50;;;21.50;87.90;;;;;;5141979;27;20046;-79
2022/10/06 12:51:32;;;;;;;10.15;1.88;;;21.90;87.30;;;;;;5134581;27;20446;-80
2022/10/06 12:54:10;;;;;;;8.10;1.63;;;22.40;86.00;;;;;;5152916;27;20486;-80
2022/10/06 12:56:41;;;;;;;10.27;1.80;;;22.70;84.80;;;;;;5153898;27;20473;-79
2022/10/06 12:59:22;;;;;;;11.57;1.85;;;22.80;84.10;;;;;;5135636;27;20046;-79
2022/10/06 13:01:51;;;;;;;11.20;1.83;;;22.50;83.90;;;;;;5157829;27;20058;-81
2022/10/06 13:04:33;;;;;;;9.95;2.63;;;21.90;83.70;;;;;;5152777;27;20121;-80
2022/10/06 13:07:14;;;;;;;8.30;1.73;;;21.50;84.50;;;;;;5152591;27;20043;-81
2022/10/06 13:09:40;;;;;;;7.68;1.58;;;21.70;86.00;;;;;;5152382;27;20051;-80
2022/10/06 13:12:31;;;;;;;11.52;2.15;;;22.30;85.00;;;;;;5133986;27;20100;-80
2022/10/06 13:15:09;;;;;;;9.25;1.88;;;22.20;82.10;;;;;;5157315;27;20050;-80